sensor_id;sensor_type;location;lat;lon;timestamp;P1;durP1;ratioP1;P2;durP2;ratioP2
76447;SDS011;65284;51.040;13.722;2023-06-10T00:01:04;11.95;;;7.72;;
76447;SDS011;65284;51.040;13.722;2023-06-10T00:03:31;10.50;;;7.50;;
76447;SDS011;65284;51.040;13.722;2023-06-10T00:05:57;12.05;;;7.90;;
76447;SDS011;65284;51.040;13.722;2023-06-10T00:08:24;9.90;;;7.63;;
76447;SDS011;65284;51.040;13.722;2023-06-10T00:10:50;11.13;;;7.95;;
76447;SDS011;65284;51.040;13.722;2023-06-10T00:13:17;12.73;;;8.70;;
76447;SDS011;65284;51.040;13.722;2023-06-10T00:15:43;10.35;;;8.48;;
76447;SDS011;65284;51.040;13.722;2023-06-10T00:18:10;10.15;;;8.35;;
76447;SDS011;65284;51.040;13.722;2023-06-10T00:20:36;12.95;;;8.25;;
76447;SDS011;65284;51.040;13.722;2023-06-10T00:23:04;11.18;;;8.88;;
76447;SDS011;65284;51.040;13.722;2023-06-10T00:25:33;11.52;;;8.20;;
76447;SDS011;65284;51.040;13.722;2023-06-10T00:27:59;11.80;;;8.15;;
76447;SDS011;65284;51.040;13.722;2023-06-10T00:30:26;12.50;;;8.52;;
76447;SDS011;65284;51.040;13.722;2023-06-10T00:32:52;13.85;;;8.18;;
76447;SDS011;65284;51.040;13.722;2023-06-10T00:35:19;11.55;;;8.52;;
76447;SDS011;65284;51.040;13.722;2023-06-10T00:37:45;11.13;;;8.68;;
76447;SDS011;65284;51.040;13.722;2023-06-10T00:40:12;11.50;;;8.85;;
76447;SDS011;65284;51.040;13.722;2023-06-10T00:42:38;13.32;;;9.50;;
76447;SDS011;65284;51.040;13.722;2023-06-10T00:45:05;11.70;;;9.00;;
76447;SDS011;65284;51.040;13.722;2023-06-10T00:47:33;15.45;;;10.15;;
76447;SDS011;65284;51.040;13.722;2023-06-10T00:50:01;14.68;;;9.95;;
76447;SDS011;65284;51.040;13.722;2023-06-10T00:52:29;11.45;;;8.75;;
76447;SDS011;65284;51.040;13.722;2023-06-10T00:54:56;12.90;;;9.40;;
76447;SDS011;65284;51.040;13.722;2023-06-10T00:57:23;12.90;;;9.45;;
76447;SDS011;65284;51.040;13.722;2023-06-10T00:59:50;13.65;;;10.55;;
76447;SDS011;65284;51.040;13.722;2023-06-10T01:02:17;12.13;;;10.15;;
76447;SDS011;65284;51.040;13.722;2023-06-10T01:04:43;13.65;;;9.75;;
76447;SDS011;65284;51.040;13.722;2023-06-10T01:12:44;13.13;;;9.65;;
76447;SDS011;65284;51.040;13.722;2023-06-10T01:15:16;14.02;;;9.18;;
76447;SDS011;65284;51.040;13.722;2023-06-10T01:17:56;11.40;;;9.02;;
76447;SDS011;65284;51.040;13.722;2023-06-10T01:20:25;13.80;;;9.52;;
76447;SDS011;65284;51.040;13.722;2023-06-10T01:22:55;10.93;;;9.00;;
76447;SDS011;65284;51.040;13.722;2023-06-10T01:25:24;9.70;;;6.82;;
76447;SDS011;65284;51.040;13.722;2023-06-10T01:27:58;9.98;;;7.50;;
76447;SDS011;65284;51.040;13.722;2023-06-10T01:30:28;8.73;;;7.13;;
76447;SDS011;65284;51.040;13.722;2023-06-10T01:32:59;9.13;;;7.05;;
76447;SDS011;65284;51.040;13.722;2023-06-10T01:35:29;9.38;;;7.10;;
76447;SDS011;65284;51.040;13.722;2023-06-10T01:37:57;9.60;;;7.03;;
76447;SDS011;65284;51.040;13.722;2023-06-10T01:40:24;11.38;;;7.80;;
76447;SDS011;65284;51.040;13.722;2023-06-10T01:42:52;12.63;;;6.97;;
76447;SDS011;65284;51.040;13.722;2023-06-10T01:45:18;10.02;;;7.35;;
76447;SDS011;65284;51.040;13.722;2023-06-10T01:47:45;9.60;;;7.13;;
76447;SDS011;65284;51.040;13.722;2023-06-10T01:50:11;8.25;;;6.68;;
76447;SDS011;65284;51.040;13.722;2023-06-10T01:52:38;10.02;;;6.80;;
76447;SDS011;65284;51.040;13.722;2023-06-10T01:55:04;9.43;;;7.28;;
76447;SDS011;65284;51.040;13.722;2023-06-10T01:57:32;11.18;;;7.95;;
76447;SDS011;65284;51.040;13.722;2023-06-10T01:59:58;10.60;;;7.88;;
76447;SDS011;65284;51.040;13.722;2023-06-10T02:02:25;10.75;;;7.53;;
76447;SDS011;65284;51.040;13.722;2023-06-10T02:04:51;11.82;;;7.85;;
76447;SDS011;65284;51.040;13.722;2023-06-10T02:07:18;11.00;;;7.55;;
76447;SDS011;65284;51.040;13.722;2023-06-10T02:09:44;16.67;;;12.80;;
76447;SDS011;65284;51.040;13.722;2023-06-10T02:12:11;11.48;;;9.10;;
76447;SDS011;65284;51.040;13.722;2023-06-10T02:14:37;13.05;;;9.55;;
76447;SDS011;65284;51.040;13.722;2023-06-10T02:17:04;12.10;;;9.13;;
76447;SDS011;65284;51.040;13.722;2023-06-10T02:19:30;12.77;;;9.02;;
76447;SDS011;65284;51.040;13.722;2023-06-10T02:21:57;12.13;;;9.75;;
76447;SDS011;65284;51.040;13.722;2023-06-10T02:24:23;13.13;;;9.88;;
76447;SDS011;65284;51.040;13.722;2023-06-10T02:26:50;12.70;;;9.40;;
76447;SDS011;65284;51.040;13.722;2023-06-10T02:29:17;13.00;;;9.55;;
76447;SDS011;65284;51.040;13.722;2023-06-10T02:31:44;12.70;;;9.68;;
76447;SDS011;65284;51.040;13.722;2023-06-10T02:34:10;16.23;;;9.77;;
76447;SDS011;65284;51.040;13.722;2023-06-10T02:36:37;15.18;;;10.63;;
76447;SDS011;65284;51.040;13.722;2023-06-10T02:39:03;12.65;;;8.93;;
76447;SDS011;65284;51.040;13.722;2023-06-10T02:41:30;13.55;;;9.60;;
76447;SDS011;65284;51.040;13.722;2023-06-10T02:43:57;13.88;;;9.65;;
76447;SDS011;65284;51.040;13.722;2023-06-10T02:46:23;12.00;;;9.52;;
76447;SDS011;65284;51.040;13.722;2023-06-10T02:48:50;14.02;;;9.15;;
76447;SDS011;65284;51.040;13.722;2023-06-10T02:51:18;16.42;;;9.45;;
76447;SDS011;65284;51.040;13.722;2023-06-10T02:53:44;13.52;;;9.45;;
76447;SDS011;65284;51.040;13.722;2023-06-10T02:56:11;16.40;;;9.45;;
76447;SDS011;65284;51.040;13.722;2023-06-10T02:58:38;14.88;;;10.13;;
76447;SDS011;65284;51.040;13.722;2023-06-10T03:01:05;11.95;;;9.23;;
76447;SDS011;65284;51.040;13.722;2023-06-10T03:03:31;12.63;;;9.15;;
76447;SDS011;65284;51.040;13.722;2023-06-10T03:05:59;13.88;;;9.32;;
76447;SDS011;65284;51.040;13.722;2023-06-10T03:08:27;13.00;;;9.43;;
76447;SDS011;65284;51.040;13.722;2023-06-10T03:10:54;15.05;;;9.95;;
76447;SDS011;65284;51.040;13.722;2023-06-10T03:13:20;16.92;;;10.10;;
76447;SDS011;65284;51.040;13.722;2023-06-10T03:15:47;15.90;;;10.60;;
76447;SDS011;65284;51.040;13.722;2023-06-10T03:18:14;17.00;;;10.55;;
76447;SDS011;65284;51.040;13.722;2023-06-10T03:20:40;15.63;;;9.85;;
76447;SDS011;65284;51.040;13.722;2023-06-10T03:23:07;15.80;;;10.43;;
76447;SDS011;65284;51.040;13.722;2023-06-10T03:25:35;15.88;;;10.90;;
76447;SDS011;65284;51.040;13.722;2023-06-10T03:28:02;16.83;;;10.85;;
76447;SDS011;65284;51.040;13.722;2023-06-10T03:30:28;17.25;;;10.90;;
76447;SDS011;65284;51.040;13.722;2023-06-10T03:32:55;15.95;;;10.40;;
76447;SDS011;65284;51.040;13.722;2023-06-10T03:35:21;16.88;;;11.02;;
76447;SDS011;65284;51.040;13.722;2023-06-10T03:37:48;14.18;;;10.43;;
76447;SDS011;65284;51.040;13.722;2023-06-10T03:40:15;15.73;;;10.88;;
76447;SDS011;65284;51.040;13.722;2023-06-10T03:42:41;16.92;;;10.98;;
76447;SDS011;65284;51.040;13.722;2023-06-10T03:45:10;15.90;;;10.63;;
76447;SDS011;65284;51.040;13.722;2023-06-10T03:47:37;15.73;;;10.85;;
76447;SDS011;65284;51.040;13.722;2023-06-10T03:50:04;15.05;;;10.57;;
76447;SDS011;65284;51.040;13.722;2023-06-10T03:52:31;16.00;;;11.07;;
76447;SDS011;65284;51.040;13.722;2023-06-10T03:54:57;18.80;;;11.30;;
76447;SDS011;65284;51.040;13.722;2023-06-10T03:57:24;16.83;;;10.43;;
76447;SDS011;65284;51.040;13.722;2023-06-10T03:59:50;17.50;;;10.30;;
76447;SDS011;65284;51.040;13.722;2023-06-10T04:02:17;16.50;;;10.98;;
76447;SDS011;65284;51.040;13.722;2023-06-10T04:04:44;17.25;;;10.75;;
76447;SDS011;65284;51.040;13.722;2023-06-10T04:07:11;14.15;;;10.38;;
76447;SDS011;65284;51.040;13.722;2023-06-10T04:09:38;15.23;;;10.75;;
76447;SDS011;65284;51.040;13.722;2023-06-10T04:12:05;14.60;;;10.45;;
76447;SDS011;65284;51.040;13.722;2023-06-10T04:14:36;15.43;;;10.43;;
76447;SDS011;65284;51.040;13.722;2023-06-10T04:17:04;17.05;;;10.80;;
76447;SDS011;65284;51.040;13.722;2023-06-10T04:19:34;17.17;;;10.77;;
76447;SDS011;65284;51.040;13.722;2023-06-10T04:22:01;14.43;;;10.63;;
76447;SDS011;65284;51.040;13.722;2023-06-10T04:24:28;16.95;;;11.02;;
76447;SDS011;65284;51.040;13.722;2023-06-10T04:26:54;15.88;;;10.73;;
76447;SDS011;65284;51.040;13.722;2023-06-10T04:29:21;18.42;;;11.07;;
76447;SDS011;65284;51.040;13.722;2023-06-10T04:31:47;16.25;;;10.68;;
76447;SDS011;65284;51.040;13.722;2023-06-10T04:34:15;15.55;;;10.50;;
76447;SDS011;65284;51.040;13.722;2023-06-10T04:36:41;15.77;;;10.07;;
76447;SDS011;65284;51.040;13.722;2023-06-10T04:39:08;15.32;;;10.65;;
76447;SDS011;65284;51.040;13.722;2023-06-10T04:41:35;14.35;;;10.30;;
76447;SDS011;65284;51.040;13.722;2023-06-10T04:44:02;14.82;;;10.30;;
76447;SDS011;65284;51.040;13.722;2023-06-10T04:46:29;14.23;;;10.27;;
76447;SDS011;65284;51.040;13.722;2023-06-10T04:48:57;15.88;;;10.60;;
76447;SDS011;65284;51.040;13.722;2023-06-10T04:51:23;15.75;;;11.45;;
76447;SDS011;65284;51.040;13.722;2023-06-10T04:53:49;14.00;;;11.15;;
76447;SDS011;65284;51.040;13.722;2023-06-10T04:56:16;15.52;;;10.52;;
76447;SDS011;65284;51.040;13.722;2023-06-10T04:58:42;14.15;;;10.52;;
76447;SDS011;65284;51.040;13.722;2023-06-10T05:01:09;16.65;;;10.70;;
76447;SDS011;65284;51.040;13.722;2023-06-10T05:03:35;15.32;;;10.32;;
76447;SDS011;65284;51.040;13.722;2023-06-10T05:06:02;17.15;;;11.02;;
76447;SDS011;65284;51.040;13.722;2023-06-10T05:08:29;16.88;;;10.55;;
76447;SDS011;65284;51.040;13.722;2023-06-10T05:10:55;14.30;;;10.65;;
76447;SDS011;65284;51.040;13.722;2023-06-10T05:13:21;15.65;;;10.57;;
76447;SDS011;65284;51.040;13.722;2023-06-10T05:15:48;14.77;;;10.38;;
76447;SDS011;65284;51.040;13.722;2023-06-10T05:18:14;16.58;;;10.65;;
76447;SDS011;65284;51.040;13.722;2023-06-10T05:20:41;16.52;;;10.35;;
76447;SDS011;65284;51.040;13.722;2023-06-10T05:23:07;13.40;;;10.00;;
76447;SDS011;65284;51.040;13.722;2023-06-10T05:25:34;16.55;;;10.32;;
76447;SDS011;65284;51.040;13.722;2023-06-10T05:28:01;12.13;;;9.35;;
76447;SDS011;65284;51.040;13.722;2023-06-10T05:30:28;13.48;;;9.85;;
76447;SDS011;65284;51.040;13.722;2023-06-10T05:32:54;11.43;;;8.75;;
76447;SDS011;65284;51.040;13.722;2023-06-10T05:35:22;12.02;;;8.93;;
76447;SDS011;65284;51.040;13.722;2023-06-10T05:37:49;12.82;;;9.45;;
76447;SDS011;65284;51.040;13.722;2023-06-10T05:40:15;12.32;;;9.30;;
76447;SDS011;65284;51.040;13.722;2023-06-10T05:42:42;15.75;;;10.52;;
76447;SDS011;65284;51.040;13.722;2023-06-10T05:45:08;16.58;;;12.25;;
76447;SDS011;65284;51.040;13.722;2023-06-10T05:47:36;12.82;;;9.30;;
76447;SDS011;65284;51.040;13.722;2023-06-10T05:50:02;12.48;;;8.60;;
76447;SDS011;65284;51.040;13.722;2023-06-10T05:52:33;13.38;;;9.63;;
76447;SDS011;65284;51.040;13.722;2023-06-10T05:55:00;11.50;;;9.02;;
76447;SDS011;65284;51.040;13.722;2023-06-10T05:57:27;12.73;;;10.00;;
76447;SDS011;65284;51.040;13.722;2023-06-10T05:59:53;13.73;;;9.98;;
76447;SDS011;65284;51.040;13.722;2023-06-10T06:02:19;13.80;;;10.00;;
76447;SDS011;65284;51.040;13.722;2023-06-10T06:04:46;13.93;;;9.55;;
76447;SDS011;65284;51.040;13.722;2023-06-10T06:07:13;12.98;;;9.48;;
76447;SDS011;65284;51.040;13.722;2023-06-10T06:09:39;12.13;;;9.57;;
76447;SDS011;65284;51.040;13.722;2023-06-10T06:12:06;15.13;;;9.90;;
76447;SDS011;65284;51.040;13.722;2023-06-10T06:14:36;13.00;;;10.07;;
76447;SDS011;65284;51.040;13.722;2023-06-10T06:17:04;13.93;;;9.55;;
76447;SDS011;65284;51.040;13.722;2023-06-10T06:19:31;14.95;;;9.18;;
76447;SDS011;65284;51.040;13.722;2023-06-10T06:21:58;15.55;;;10.27;;
76447;SDS011;65284;51.040;13.722;2023-06-10T06:24:24;12.10;;;8.73;;
76447;SDS011;65284;51.040;13.722;2023-06-10T06:26:51;13.00;;;8.82;;
76447;SDS011;65284;51.040;13.722;2023-06-10T06:29:17;12.48;;;8.48;;
76447;SDS011;65284;51.040;13.722;2023-06-10T06:31:44;10.55;;;8.43;;
76447;SDS011;65284;51.040;13.722;2023-06-10T06:34:10;12.13;;;8.45;;
76447;SDS011;65284;51.040;13.722;2023-06-10T06:36:41;11.57;;;8.40;;
76447;SDS011;65284;51.040;13.722;2023-06-10T06:39:08;10.48;;;8.05;;
76447;SDS011;65284;51.040;13.722;2023-06-10T06:41:34;10.70;;;8.00;;
76447;SDS011;65284;51.040;13.722;2023-06-10T06:44:01;10.98;;;7.72;;
76447;SDS011;65284;51.040;13.722;2023-06-10T06:46:27;9.00;;;7.03;;
76447;SDS011;65284;51.040;13.722;2023-06-10T06:48:54;9.40;;;7.80;;
76447;SDS011;65284;51.040;13.722;2023-06-10T06:51:21;11.02;;;7.85;;
76447;SDS011;65284;51.040;13.722;2023-06-10T06:53:47;11.25;;;7.18;;
76447;SDS011;65284;51.040;13.722;2023-06-10T06:56:16;9.48;;;7.55;;
76447;SDS011;65284;51.040;13.722;2023-06-10T06:58:43;9.85;;;7.05;;
76447;SDS011;65284;51.040;13.722;2023-06-10T07:01:09;8.20;;;6.82;;
76447;SDS011;65284;51.040;13.722;2023-06-10T07:03:36;11.18;;;7.78;;
76447;SDS011;65284;51.040;13.722;2023-06-10T07:06:02;17.52;;;12.35;;
76447;SDS011;65284;51.040;13.722;2023-06-10T07:08:29;14.10;;;9.48;;
76447;SDS011;65284;51.040;13.722;2023-06-10T07:10:56;12.70;;;8.75;;
76447;SDS011;65284;51.040;13.722;2023-06-10T07:13:22;15.98;;;10.30;;
76447;SDS011;65284;51.040;13.722;2023-06-10T07:15:49;17.48;;;11.32;;
76447;SDS011;65284;51.040;13.722;2023-06-10T07:18:15;20.58;;;15.88;;
76447;SDS011;65284;51.040;13.722;2023-06-10T07:20:43;17.08;;;13.57;;
76447;SDS011;65284;51.040;13.722;2023-06-10T07:23:10;15.35;;;12.10;;
76447;SDS011;65284;51.040;13.722;2023-06-10T07:25:36;18.27;;;13.43;;
76447;SDS011;65284;51.040;13.722;2023-06-10T07:28:03;14.85;;;9.85;;
76447;SDS011;65284;51.040;13.722;2023-06-10T07:30:29;12.90;;;9.07;;
76447;SDS011;65284;51.040;13.722;2023-06-10T07:32:56;14.73;;;8.75;;
76447;SDS011;65284;51.040;13.722;2023-06-10T07:35:22;10.52;;;8.13;;
76447;SDS011;65284;51.040;13.722;2023-06-10T07:37:49;10.45;;;7.90;;
76447;SDS011;65284;51.040;13.722;2023-06-10T07:40:15;9.52;;;7.60;;
76447;SDS011;65284;51.040;13.722;2023-06-10T07:42:42;11.25;;;8.05;;
76447;SDS011;65284;51.040;13.722;2023-06-10T07:45:09;9.77;;;7.00;;
76447;SDS011;65284;51.040;13.722;2023-06-10T07:47:36;9.32;;;6.78;;
76447;SDS011;65284;51.040;13.722;2023-06-10T07:50:03;8.43;;;6.85;;
76447;SDS011;65284;51.040;13.722;2023-06-10T07:52:29;9.30;;;7.07;;
76447;SDS011;65284;51.040;13.722;2023-06-10T07:54:57;11.52;;;6.80;;
76447;SDS011;65284;51.040;13.722;2023-06-10T07:57:23;9.75;;;7.38;;
76447;SDS011;65284;51.040;13.722;2023-06-10T07:59:50;10.77;;;8.63;;
76447;SDS011;65284;51.040;13.722;2023-06-10T08:02:17;12.57;;;9.43;;
76447;SDS011;65284;51.040;13.722;2023-06-10T08:04:43;25.02;;;16.75;;
76447;SDS011;65284;51.040;13.722;2023-06-10T08:07:10;18.08;;;12.45;;
76447;SDS011;65284;51.040;13.722;2023-06-10T08:09:36;11.35;;;8.38;;
76447;SDS011;65284;51.040;13.722;2023-06-10T08:12:02;11.50;;;7.20;;
76447;SDS011;65284;51.040;13.722;2023-06-10T08:14:29;12.60;;;6.88;;
76447;SDS011;65284;51.040;13.722;2023-06-10T08:16:56;10.23;;;7.10;;
76447;SDS011;65284;51.040;13.722;2023-06-10T08:19:22;9.18;;;7.05;;
76447;SDS011;65284;51.040;13.722;2023-06-10T08:21:49;9.60;;;6.75;;
76447;SDS011;65284;51.040;13.722;2023-06-10T08:24:15;10.77;;;7.75;;
76447;SDS011;65284;51.040;13.722;2023-06-10T08:26:44;12.38;;;8.32;;
76447;SDS011;65284;51.040;13.722;2023-06-10T08:29:11;10.93;;;7.93;;
76447;SDS011;65284;51.040;13.722;2023-06-10T08:31:42;8.23;;;6.65;;
76447;SDS011;65284;51.040;13.722;2023-06-10T08:34:09;9.20;;;6.95;;
76447;SDS011;65284;51.040;13.722;2023-06-10T08:36:36;9.15;;;7.30;;
76447;SDS011;65284;51.040;13.722;2023-06-10T08:39:03;9.10;;;6.70;;
76447;SDS011;65284;51.040;13.722;2023-06-10T08:41:30;8.60;;;6.47;;
76447;SDS011;65284;51.040;13.722;2023-06-10T08:44:08;8.82;;;6.22;;
76447;SDS011;65284;51.040;13.722;2023-06-10T08:46:38;8.75;;;5.93;;
76447;SDS011;65284;51.040;13.722;2023-06-10T08:49:10;11.07;;;6.88;;
76447;SDS011;65284;51.040;13.722;2023-06-10T08:51:43;10.52;;;7.47;;
76447;SDS011;65284;51.040;13.722;2023-06-10T08:54:18;12.40;;;7.93;;
76447;SDS011;65284;51.040;13.722;2023-06-10T08:56:51;18.25;;;12.15;;
76447;SDS011;65284;51.040;13.722;2023-06-10T08:59:19;9.80;;;6.50;;
76447;SDS011;65284;51.040;13.722;2023-06-10T09:01:47;9.25;;;6.60;;
76447;SDS011;65284;51.040;13.722;2023-06-10T09:04:13;8.75;;;6.20;;
76447;SDS011;65284;51.040;13.722;2023-06-10T09:09:09;8.32;;;6.85;;
76447;SDS011;65284;51.040;13.722;2023-06-10T09:11:36;13.65;;;6.78;;
76447;SDS011;65284;51.040;13.722;2023-06-10T09:14:04;8.55;;;6.40;;
76447;SDS011;65284;51.040;13.722;2023-06-10T09:16:30;10.35;;;7.15;;
76447;SDS011;65284;51.040;13.722;2023-06-10T09:18:57;9.32;;;6.90;;
76447;SDS011;65284;51.040;13.722;2023-06-10T09:21:24;12.65;;;6.68;;
76447;SDS011;65284;51.040;13.722;2023-06-10T09:23:51;9.85;;;6.65;;
76447;SDS011;65284;51.040;13.722;2023-06-10T09:26:18;8.40;;;6.45;;
76447;SDS011;65284;51.040;13.722;2023-06-10T09:28:47;9.60;;;7.22;;
76447;SDS011;65284;51.040;13.722;2023-06-10T09:31:14;11.32;;;6.95;;
76447;SDS011;65284;51.040;13.722;2023-06-10T09:33:44;8.65;;;6.85;;
76447;SDS011;65284;51.040;13.722;2023-06-10T09:36:11;10.32;;;6.40;;
76447;SDS011;65284;51.040;13.722;2023-06-10T09:38:49;10.55;;;6.53;;
76447;SDS011;65284;51.040;13.722;2023-06-10T09:41:15;13.05;;;6.88;;
76447;SDS011;65284;51.040;13.722;2023-06-10T09:43:43;12.50;;;6.68;;
76447;SDS011;65284;51.040;13.722;2023-06-10T09:46:14;7.93;;;6.07;;
76447;SDS011;65284;51.040;13.722;2023-06-10T09:48:44;9.38;;;6.03;;
76447;SDS011;65284;51.040;13.722;2023-06-10T09:51:15;7.40;;;5.57;;
76447;SDS011;65284;51.040;13.722;2023-06-10T09:53:48;8.43;;;5.60;;
76447;SDS011;65284;51.040;13.722;2023-06-10T09:56:17;8.23;;;5.68;;
76447;SDS011;65284;51.040;13.722;2023-06-10T09:58:44;8.35;;;6.22;;
76447;SDS011;65284;51.040;13.722;2023-06-10T10:01:13;10.23;;;6.82;;
76447;SDS011;65284;51.040;13.722;2023-06-10T10:03:44;9.32;;;5.97;;
76447;SDS011;65284;51.040;13.722;2023-06-10T10:06:15;7.03;;;5.50;;
76447;SDS011;65284;51.040;13.722;2023-06-10T10:08:43;10.27;;;5.68;;
76447;SDS011;65284;51.040;13.722;2023-06-10T10:11:11;8.95;;;5.88;;
76447;SDS011;65284;51.040;13.722;2023-06-10T10:13:38;9.63;;;6.00;;
76447;SDS011;65284;51.040;13.722;2023-06-10T10:16:11;8.40;;;5.45;;
76447;SDS011;65284;51.040;13.722;2023-06-10T10:18:45;8.40;;;5.90;;
76447;SDS011;65284;51.040;13.722;2023-06-10T10:21:17;6.57;;;5.20;;
76447;SDS011;65284;51.040;13.722;2023-06-10T10:23:53;11.35;;;7.60;;
76447;SDS011;65284;51.040;13.722;2023-06-10T10:26:35;14.07;;;10.02;;
76447;SDS011;65284;51.040;13.722;2023-06-10T10:29:10;7.22;;;5.85;;
76447;SDS011;65284;51.040;13.722;2023-06-10T10:31:41;7.03;;;5.90;;
76447;SDS011;65284;51.040;13.722;2023-06-10T10:34:13;7.75;;;6.03;;
76447;SDS011;65284;51.040;13.722;2023-06-10T10:36:43;8.45;;;5.80;;
76447;SDS011;65284;51.040;13.722;2023-06-10T10:39:10;7.63;;;5.82;;
76447;SDS011;65284;51.040;13.722;2023-06-10T10:41:38;7.30;;;5.68;;
76447;SDS011;65284;51.040;13.722;2023-06-10T10:44:06;7.28;;;5.65;;
76447;SDS011;65284;51.040;13.722;2023-06-10T10:46:43;8.20;;;5.53;;
76447;SDS011;65284;51.040;13.722;2023-06-10T10:49:11;9.50;;;6.18;;
76447;SDS011;65284;51.040;13.722;2023-06-10T10:51:56;7.30;;;5.93;;
76447;SDS011;65284;51.040;13.722;2023-06-10T10:54:30;9.27;;;5.57;;
76447;SDS011;65284;51.040;13.722;2023-06-10T10:57:17;7.18;;;5.60;;
76447;SDS011;65284;51.040;13.722;2023-06-10T11:02:16;7.53;;;5.50;;
76447;SDS011;65284;51.040;13.722;2023-06-10T11:04:47;7.85;;;5.50;;
76447;SDS011;65284;51.040;13.722;2023-06-10T11:07:14;9.57;;;5.78;;
76447;SDS011;65284;51.040;13.722;2023-06-10T11:15:14;8.52;;;5.20;;
76447;SDS011;65284;51.040;13.722;2023-06-10T11:20:41;8.50;;;5.15;;
76447;SDS011;65284;51.040;13.722;2023-06-10T11:23:08;9.75;;;5.20;;
76447;SDS011;65284;51.040;13.722;2023-06-10T11:25:38;6.57;;;5.20;;
76447;SDS011;65284;51.040;13.722;2023-06-10T11:28:18;7.47;;;5.43;;
76447;SDS011;65284;51.040;13.722;2023-06-10T11:30:46;8.15;;;5.47;;
76447;SDS011;65284;51.040;13.722;2023-06-10T11:33:16;7.72;;;5.70;;
76447;SDS011;65284;51.040;13.722;2023-06-10T11:35:43;8.82;;;5.65;;
76447;SDS011;65284;51.040;13.722;2023-06-10T11:38:10;7.75;;;5.50;;
76447;SDS011;65284;51.040;13.722;2023-06-10T11:40:36;8.45;;;5.70;;
76447;SDS011;65284;51.040;13.722;2023-06-10T11:43:03;7.10;;;5.55;;
76447;SDS011;65284;51.040;13.722;2023-06-10T11:45:30;6.72;;;5.20;;
76447;SDS011;65284;51.040;13.722;2023-06-10T11:47:57;9.07;;;5.72;;
76447;SDS011;65284;51.040;13.722;2023-06-10T11:50:31;8.13;;;5.60;;
76447;SDS011;65284;51.040;13.722;2023-06-10T11:52:58;11.05;;;5.93;;
76447;SDS011;65284;51.040;13.722;2023-06-10T11:58:18;9.70;;;5.97;;
76447;SDS011;65284;51.040;13.722;2023-06-10T12:00:48;9.45;;;5.90;;
76447;SDS011;65284;51.040;13.722;2023-06-10T12:03:17;9.40;;;5.97;;
76447;SDS011;65284;51.040;13.722;2023-06-10T12:05:56;8.25;;;5.60;;
76447;SDS011;65284;51.040;13.722;2023-06-10T12:08:24;7.22;;;5.35;;
76447;SDS011;65284;51.040;13.722;2023-06-10T12:10:51;7.38;;;5.10;;
76447;SDS011;65284;51.040;13.722;2023-06-10T12:13:18;11.32;;;5.63;;
76447;SDS011;65284;51.040;13.722;2023-06-10T12:15:44;9.27;;;6.00;;
76447;SDS011;65284;51.040;13.722;2023-06-10T12:18:18;8.77;;;5.47;;
76447;SDS011;65284;51.040;13.722;2023-06-10T12:20:46;10.75;;;5.93;;
76447;SDS011;65284;51.040;13.722;2023-06-10T12:23:15;7.32;;;5.57;;
76447;SDS011;65284;51.040;13.722;2023-06-10T12:25:49;7.13;;;5.72;;
76447;SDS011;65284;51.040;13.722;2023-06-10T12:28:17;8.73;;;4.95;;
76447;SDS011;65284;51.040;13.722;2023-06-10T12:30:46;7.68;;;5.45;;
76447;SDS011;65284;51.040;13.722;2023-06-10T12:33:16;6.53;;;4.78;;
76447;SDS011;65284;51.040;13.722;2023-06-10T12:35:47;6.50;;;5.10;;
76447;SDS011;65284;51.040;13.722;2023-06-10T12:38:20;6.97;;;4.65;;
76447;SDS011;65284;51.040;13.722;2023-06-10T12:40:51;6.45;;;5.05;;
76447;SDS011;65284;51.040;13.722;2023-06-10T12:43:20;7.32;;;4.95;;
76447;SDS011;65284;51.040;13.722;2023-06-10T12:45:47;8.10;;;4.95;;
76447;SDS011;65284;51.040;13.722;2023-06-10T12:48:21;8.82;;;4.70;;
76447;SDS011;65284;51.040;13.722;2023-06-10T12:50:52;7.70;;;5.28;;
76447;SDS011;65284;51.040;13.722;2023-06-10T12:53:21;8.68;;;4.80;;
76447;SDS011;65284;51.040;13.722;2023-06-10T12:55:50;6.95;;;4.55;;
76447;SDS011;65284;51.040;13.722;2023-06-10T12:58:17;6.47;;;4.70;;
76447;SDS011;65284;51.040;13.722;2023-06-10T13:00:43;5.60;;;4.95;;
76447;SDS011;65284;51.040;13.722;2023-06-10T13:03:09;7.28;;;5.25;;
76447;SDS011;65284;51.040;13.722;2023-06-10T13:05:36;8.32;;;5.30;;
76447;SDS011;65284;51.040;13.722;2023-06-10T13:08:05;8.07;;;5.45;;
76447;SDS011;65284;51.040;13.722;2023-06-10T13:10:33;7.55;;;5.13;;
76447;SDS011;65284;51.040;13.722;2023-06-10T13:13:01;8.50;;;5.60;;
76447;SDS011;65284;51.040;13.722;2023-06-10T13:15:28;7.97;;;5.55;;
76447;SDS011;65284;51.040;13.722;2023-06-10T13:17:55;7.88;;;5.55;;
76447;SDS011;65284;51.040;13.722;2023-06-10T13:20:21;6.95;;;5.18;;
76447;SDS011;65284;51.040;13.722;2023-06-10T13:22:48;7.47;;;5.25;;
76447;SDS011;65284;51.040;13.722;2023-06-10T13:25:15;7.95;;;4.78;;
76447;SDS011;65284;51.040;13.722;2023-06-10T13:27:42;9.15;;;4.65;;
76447;SDS011;65284;51.040;13.722;2023-06-10T13:30:09;8.57;;;4.70;;
76447;SDS011;65284;51.040;13.722;2023-06-10T13:32:36;9.20;;;5.03;;
76447;SDS011;65284;51.040;13.722;2023-06-10T13:35:03;7.10;;;4.65;;
76447;SDS011;65284;51.040;13.722;2023-06-10T13:37:30;7.18;;;4.97;;
76447;SDS011;65284;51.040;13.722;2023-06-10T13:39:57;8.55;;;4.53;;
76447;SDS011;65284;51.040;13.722;2023-06-10T13:42:23;8.45;;;4.28;;
76447;SDS011;65284;51.040;13.722;2023-06-10T13:44:52;6.85;;;4.20;;
76447;SDS011;65284;51.040;13.722;2023-06-10T13:47:18;7.20;;;4.57;;
76447;SDS011;65284;51.040;13.722;2023-06-10T13:49:45;8.23;;;3.97;;
76447;SDS011;65284;51.040;13.722;2023-06-10T13:52:12;5.63;;;3.97;;
76447;SDS011;65284;51.040;13.722;2023-06-10T13:54:39;5.25;;;4.20;;
76447;SDS011;65284;51.040;13.722;2023-06-10T13:57:05;5.70;;;3.80;;
76447;SDS011;65284;51.040;13.722;2023-06-10T13:59:32;7.85;;;4.00;;
76447;SDS011;65284;51.040;13.722;2023-06-10T14:01:58;5.50;;;3.90;;
76447;SDS011;65284;51.040;13.722;2023-06-10T14:04:25;5.80;;;3.58;;
76447;SDS011;65284;51.040;13.722;2023-06-10T14:06:51;7.43;;;3.50;;
76447;SDS011;65284;51.040;13.722;2023-06-10T14:09:18;6.25;;;3.80;;
76447;SDS011;65284;51.040;13.722;2023-06-10T14:11:45;7.35;;;3.58;;
76447;SDS011;65284;51.040;13.722;2023-06-10T14:14:11;4.88;;;3.50;;
76447;SDS011;65284;51.040;13.722;2023-06-10T14:16:38;6.50;;;3.35;;
76447;SDS011;65284;51.040;13.722;2023-06-10T14:19:08;6.75;;;3.90;;
76447;SDS011;65284;51.040;13.722;2023-06-10T14:21:35;5.95;;;3.75;;
76447;SDS011;65284;51.040;13.722;2023-06-10T14:24:01;6.63;;;3.88;;
76447;SDS011;65284;51.040;13.722;2023-06-10T14:26:28;5.45;;;3.58;;
76447;SDS011;65284;51.040;13.722;2023-06-10T14:28:55;6.70;;;3.78;;
76447;SDS011;65284;51.040;13.722;2023-06-10T14:31:21;6.25;;;3.83;;
76447;SDS011;65284;51.040;13.722;2023-06-10T14:33:47;6.63;;;4.43;;
76447;SDS011;65284;51.040;13.722;2023-06-10T14:36:14;7.70;;;3.78;;
76447;SDS011;65284;51.040;13.722;2023-06-10T14:38:40;7.95;;;3.85;;
76447;SDS011;65284;51.040;13.722;2023-06-10T14:41:07;8.35;;;3.67;;
76447;SDS011;65284;51.040;13.722;2023-06-10T14:43:33;5.38;;;3.58;;
76447;SDS011;65284;51.040;13.722;2023-06-10T14:45:59;7.13;;;4.10;;
76447;SDS011;65284;51.040;13.722;2023-06-10T14:48:26;6.07;;;3.83;;